Time;durP1;ratioP1;P1;durP2;ratioP2;P2;SDS_P1;SDS_P2;PMS_P1;PMS_P2;Temp;Humidity;BMP_temperature;BMP_pressure;BME280_temperature;BME280_humidity;BME280_pressure;Samples;Min_cycle;Max_cycle;Signal;HPM_P1;HPM_P2
2023/08/06 00:00:44;;;;;;;7.43;6.93;;;;;;;14.24;nan;96171.22;4938178;28;20758;-62
2023/08/06 00:03:12;;;;;;;7.60;7.00;;;;;;;14.25;nan;96154.19;4987532;28;20225;-61
2023/08/06 00:05:42;;;;;;;7.50;6.77;;;;;;;14.28;nan;96159.03;4990842;28;20224;-58
2023/08/06 00:08:10;;;;;;;8.13;7.50;;;;;;;14.21;nan;96161.03;4986736;28;20207;-61
2023/08/06 00:10:40;;;;;;;8.03;7.40;;;;;;;14.22;nan;96155.44;4987704;28;20223;-61
2023/08/06 00:13:08;;;;;;;8.43;7.70;;;;;;;14.26;nan;96161.13;4991596;28;20229;-63
2023/08/06 00:15:36;;;;;;;7.97;7.43;;;;;;;14.30;nan;96152.44;4985563;28;20210;-62
2023/08/06 00:18:04;;;;;;;8.50;7.90;;;;;;;14.32;nan;96162.88;4993226;28;20731;-60
2023/08/06 00:20:32;;;;;;;8.70;8.10;;;;;;;14.33;nan;96153.81;4863603;28;21007;-61
2023/08/06 00:22:59;;;;;;;8.43;7.70;;;;;;;14.29;nan;96153.47;4989323;28;20228;-63
2023/08/06 00:25:27;;;;;;;8.47;7.73;;;;;;;14.31;nan;96148.72;4941328;28;21044;-63
2023/08/06 00:27:56;;;;;;;8.10;7.60;;;;;;;14.17;nan;96148.16;4993331;28;20207;-62
2023/08/06 00:30:24;;;;;;;8.23;7.47;;;;;;;14.12;nan;96150.69;4943897;28;20568;-63
2023/08/06 00:32:52;;;;;;;7.73;7.13;;;;;;;14.16;nan;96149.19;4988534;28;20691;-60
2023/08/06 00:35:20;;;;;;;7.73;7.07;;;;;;;14.13;nan;96156.84;4988805;28;20209;-63
2023/08/06 00:37:48;;;;;;;7.37;6.87;;;;;;;14.19;nan;96158.59;4988822;28;20220;-61
2023/08/06 00:40:16;;;;;;;7.93;7.10;;;;;;;14.24;nan;96152.56;4987985;28;20208;-63
2023/08/06 00:42:46;;;;;;;9.50;8.70;;;;;;;14.15;nan;96157.44;4992651;28;20727;-63
2023/08/06 00:45:15;;;;;;;8.40;7.87;;;;;;;14.13;nan;96173.63;4991973;28;20228;-63
2023/08/06 00:47:43;;;;;;;9.90;9.20;;;;;;;14.08;nan;96186.03;4994242;28;20669;-63
2023/08/06 00:50:12;;;;;;;10.17;9.47;;;;;;;14.15;nan;96194.72;4930118;28;20746;-63
2023/08/06 00:52:40;;;;;;;10.63;9.93;;;;;;;14.15;nan;96197.38;4948170;28;20858;-63
2023/08/06 00:55:09;;;;;;;10.47;9.57;;;;;;;14.06;nan;96204.09;4994495;28;20229;-63
2023/08/06 00:57:37;;;;;;;8.90;8.20;;;;;;;13.86;nan;96208.69;4996173;28;20208;-63
2023/08/06 01:00:06;;;;;;;7.50;7.00;;;;;;;13.76;nan;96192.47;4972367;28;20600;-64
2023/08/06 01:02:35;;;;;;;5.30;4.90;;;;;;;13.60;nan;96185.94;4963015;28;20248;-67
2023/08/06 01:05:04;;;;;;;4.70;4.40;;;;;;;13.47;nan;96192.28;4976025;28;20213;-65
2023/08/06 01:07:40;;;;;;;3.90;3.70;;;;;;;13.24;nan;96180.50;4957186;28;20217;-62
2023/08/06 01:10:20;;;;;;;3.50;3.30;;;;;;;13.16;nan;96168.31;4993971;28;20553;-63
2023/08/06 01:12:52;;;;;;;3.60;3.40;;;;;;;13.09;nan;96150.84;4996697;28;20697;-64
2023/08/06 01:15:23;;;;;;;3.90;3.70;;;;;;;13.10;nan;96153.25;4989142;28;20854;-64
2023/08/06 01:17:53;;;;;;;3.53;3.33;;;;;;;13.10;nan;96152.47;4993175;28;20246;-64
2023/08/06 01:20:21;;;;;;;3.40;3.20;;;;;;;13.11;nan;96144.25;4996232;28;20209;-65
2023/08/06 01:22:50;;;;;;;3.47;3.27;;;;;;;13.12;nan;96161.03;4991556;28;20812;-64
2023/08/06 01:25:18;;;;;;;3.50;3.13;;;;;;;13.07;nan;96166.19;4905856;28;21065;-65
2023/08/06 01:27:49;;;;;;;3.30;3.10;;;;;;;13.02;nan;96172.97;4961130;28;20626;-63
2023/08/06 01:30:19;;;;;;;4.40;3.33;;;;;;;12.94;nan;96162.66;4960581;28;20852;-63
2023/08/06 01:32:50;;;;;;;3.73;3.53;;;;;;;12.94;nan;96167.97;4985122;28;20229;-61
2023/08/06 01:35:20;;;;;;;3.40;3.20;;;;;;;12.82;nan;96165.25;4954603;28;20228;-65
2023/08/06 01:37:50;;;;;;;3.60;3.40;;;;;;;12.86;nan;96161.13;4985432;28;20221;-63
2023/08/06 01:40:17;;;;;;;3.57;3.27;;;;;;;12.86;nan;96165.63;4990655;28;20201;-64
2023/08/06 01:42:45;;;;;;;3.93;3.63;;;;;;;12.79;nan;96164.91;4997116;28;20225;-63
2023/08/06 01:45:13;;;;;;;3.70;3.50;;;;;;;12.78;nan;96166.75;4995004;28;20209;-63
2023/08/06 01:47:40;;;;;;;3.70;3.40;;;;;;;12.75;nan;96153.91;4994941;28;20244;-63
2023/08/06 01:50:09;;;;;;;3.40;3.20;;;;;;;12.84;nan;96154.41;4992390;28;20231;-64
2023/08/06 01:52:37;;;;;;;3.67;3.37;;;;;;;12.83;nan;96158.91;4993104;28;20229;-63
2023/08/06 01:55:06;;;;;;;3.90;3.70;;;;;;;12.86;nan;96157.66;4992607;28;20623;-62
2023/08/06 01:57:34;;;;;;;3.83;3.63;;;;;;;12.91;nan;96159.66;4994991;28;20206;-62
2023/08/06 02:00:02;;;;;;;3.83;3.63;;;;;;;12.66;nan;96107.41;4948376;28;20204;-65
2023/08/06 02:02:30;;;;;;;3.47;3.27;;;;;;;12.92;nan;96145.34;4916150;28;20228;-60
2023/08/06 02:04:59;;;;;;;3.40;3.20;;;;;;;12.97;nan;96151.59;4931259;28;20212;-61
2023/08/06 02:07:26;;;;;;;3.60;3.40;;;;;;;12.97;nan;96143.59;4992449;28;20287;-62
2023/08/06 02:09:54;;;;;;;3.33;3.17;;;;;;;12.96;nan;96131.34;4940655;28;20205;-62
2023/08/06 02:12:23;;;;;;;3.70;3.40;;;;;;;12.93;nan;96136.31;5003591;28;20296;-64
2023/08/06 02:14:51;;;;;;;3.40;3.20;;;;;;;12.91;nan;96136.53;4998031;28;20201;-62
2023/08/06 02:17:19;;;;;;;3.53;3.33;;;;;;;12.85;nan;96118.81;4994641;28;20217;-65
2023/08/06 02:19:47;;;;;;;4.63;4.33;;;;;;;12.83;nan;96120.91;4988308;28;20268;-63
2023/08/06 02:22:15;;;;;;;4.03;3.83;;;;;;;12.57;nan;96075.84;4993338;28;20707;-64
2023/08/06 02:24:43;;;;;;;3.53;3.33;;;;;;;12.80;nan;96108.84;4992543;28;20213;-63
2023/08/06 02:27:10;;;;;;;3.73;3.43;;;;;;;12.76;nan;96105.03;4991234;28;20252;-64
2023/08/06 02:29:41;;;;;;;4.17;3.87;;;;;;;12.69;nan;96104.31;4989397;28;20209;-64
2023/08/06 02:32:08;;;;;;;3.83;3.63;;;;;;;12.71;nan;96104.91;4994989;28;20221;-64
2023/08/06 02:34:36;;;;;;;5.63;3.90;;;;;;;12.73;nan;96108.13;4867691;28;20217;-63
2023/08/06 02:37:04;;;;;;;3.83;3.63;;;;;;;12.73;nan;96097.50;4993381;28;20215;-63
2023/08/06 02:39:33;;;;;;;4.03;3.73;;;;;;;12.75;nan;96095.44;4992367;28;20228;-66
2023/08/06 02:42:01;;;;;;;3.97;3.67;;;;;;;12.77;nan;96089.91;4996360;28;20278;-64
2023/08/06 02:44:29;;;;;;;4.40;4.10;;;;;;;12.55;nan;96046.03;4932508;28;20221;-64
2023/08/06 02:46:59;;;;;;;3.73;3.43;;;;;;;12.79;nan;96087.84;4995539;28;20224;-64
2023/08/06 02:49:26;;;;;;;3.73;3.53;;;;;;;12.77;nan;96104.00;4990049;28;20209;-64
2023/08/06 02:51:54;;;;;;;3.70;3.50;;;;;;;12.84;nan;96118.00;4994267;28;20208;-63
2023/08/06 02:54:22;;;;;;;4.00;3.80;;;;;;;12.89;nan;96114.69;4990332;28;20225;-63
2023/08/06 02:56:50;;;;;;;4.00;3.80;;;;;;;12.97;nan;96113.56;4994674;28;20201;-64
2023/08/06 02:59:17;;;;;;;4.87;4.47;;;;;;;13.01;nan;96118.19;4992680;28;20341;-65
2023/08/06 03:01:45;;;;;;;3.97;3.77;;;;;;;13.01;nan;96120.84;4991329;28;20505;-61
2023/08/06 03:04:14;;;;;;;4.70;4.40;;;;;;;12.94;nan;96116.69;4992751;28;20213;-66
2023/08/06 03:06:42;;;;;;;3.93;3.73;;;;;;;12.90;nan;96116.31;4996181;28;20232;-66
2023/08/06 03:09:10;;;;;;;3.83;3.63;;;;;;;12.95;nan;96107.66;4863175;28;20213;-65
2023/08/06 03:11:37;;;;;;;4.00;3.70;;;;;;;12.91;nan;96103.84;4992150;28;20209;-63
2023/08/06 03:14:05;;;;;;;5.47;4.00;;;;;;;12.81;nan;96099.06;4991520;28;20356;-63
2023/08/06 03:16:33;;;;;;;3.97;3.77;;;;;;;12.83;nan;96104.94;4988930;28;20623;-62
2023/08/06 03:19:01;;;;;;;4.07;3.87;;;;;;;12.87;nan;96103.47;4936646;28;20219;-64
2023/08/06 03:21:30;;;;;;;4.47;4.17;;;;;;;12.94;nan;96112.16;4994038;28;21530;-67
2023/08/06 03:23:57;;;;;;;4.30;4.00;;;;;;;12.93;nan;96107.88;4991456;28;20248;-62
2023/08/06 03:26:25;;;;;;;3.97;3.73;;;;;;;12.93;nan;96112.41;4994978;28;20376;-64
2023/08/06 03:28:53;;;;;;;4.40;4.00;;;;;;;12.87;nan;96106.91;4992828;28;20232;-63
2023/08/06 03:31:20;;;;;;;4.40;4.10;;;;;;;12.81;nan;96107.03;4995084;28;20704;-63
2023/08/06 03:33:48;;;;;;;6.10;3.60;;;;;;;12.81;nan;96110.47;4986972;28;22749;-62
2023/08/06 03:36:16;;;;;;;4.03;3.83;;;;;;;12.73;nan;96101.00;4996458;28;20212;-62
2023/08/06 03:38:45;;;;;;;4.00;3.80;;;;;;;12.79;nan;96101.13;4987959;28;20585;-62
2023/08/06 03:41:12;;;;;;;4.67;4.27;;;;;;;12.82;nan;96093.50;4992047;28;20814;-60
2023/08/06 03:43:40;;;;;;;4.13;3.93;;;;;;;12.90;nan;96099.56;4864851;28;20617;-62
2023/08/06 03:46:08;;;;;;;4.73;4.10;;;;;;;12.85;nan;96094.91;4990208;28;20217;-61
2023/08/06 03:48:36;;;;;;;4.13;3.90;;;;;;;12.86;nan;96102.63;4928825;28;20222;-61
2023/08/06 03:51:03;;;;;;;6.53;4.30;;;;;;;12.88;nan;96097.09;4995254;28;20305;-61
2023/08/06 03:53:31;;;;;;;3.93;3.73;;;;;;;12.89;nan;96098.72;4987100;28;20758;-62
2023/08/06 03:56:00;;;;;;;4.73;4.37;;;;;;;12.84;nan;96090.63;4996089;28;20216;-61
2023/08/06 03:58:28;;;;;;;4.20;3.93;;;;;;;12.91;nan;96098.53;4987731;28;20202;-62
2023/08/06 04:01:00;;;;;;;4.30;4.10;;;;;;;12.86;nan;96089.34;4994225;28;20201;-62
2023/08/06 04:03:28;;;;;;;5.83;4.43;;;;;;;12.90;nan;96092.38;4990378;28;20224;-62
2023/08/06 04:05:56;;;;;;;4.33;4.13;;;;;;;12.74;nan;96102.59;4992422;28;20216;-62
2023/08/06 04:08:24;;;;;;;4.87;4.47;;;;;;;12.68;nan;96094.72;4985622;28;20227;-62
2023/08/06 04:10:52;;;;;;;4.57;4.17;;;;;;;12.64;nan;96096.19;4987761;28;20202;-63
2023/08/06 04:13:22;;;;;;;4.30;4.00;;;;;;;12.70;nan;96095.31;4986885;28;20235;-63
2023/08/06 04:15:49;;;;;;;4.43;4.20;;;;;;;12.83;nan;96099.63;4990638;28;20202;-61
2023/08/06 04:18:18;;;;;;;4.67;4.30;;;;;;;12.86;nan;96099.19;4873481;28;20660;-65
2023/08/06 04:20:46;;;;;;;4.40;4.10;;;;;;;12.87;nan;96109.56;4924272;28;20221;-62
2023/08/06 04:23:14;;;;;;;4.70;4.40;;;;;;;12.83;nan;96111.06;4992632;28;20723;-64
2023/08/06 04:25:41;;;;;;;4.20;3.97;;;;;;;12.82;nan;96106.78;4990544;28;20514;-65
2023/08/06 04:28:09;;;;;;;5.47;4.97;;;;;;;12.81;nan;96105.16;4924089;28;20953;-61
2023/08/06 04:30:39;;;;;;;5.20;4.67;;;;;;;12.90;nan;96102.22;4990632;28;20208;-61
2023/08/06 04:33:07;;;;;;;5.20;4.90;;;;;;;12.89;nan;96104.03;4987754;28;20233;-61
2023/08/06 04:35:34;;;;;;;5.43;5.03;;;;;;;12.90;nan;96111.00;4920487;28;20358;-63
2023/08/06 04:38:02;;;;;;;5.03;4.73;;;;;;;12.94;nan;96106.03;4991427;28;20671;-61
2023/08/06 04:40:30;;;;;;;4.97;4.67;;;;;;;13.03;nan;96107.34;4990941;28;20236;-61
2023/08/06 04:42:57;;;;;;;5.83;5.43;;;;;;;13.07;nan;96102.38;4989931;28;20754;-61
2023/08/06 04:45:25;;;;;;;6.23;5.70;;;;;;;13.08;nan;96096.84;4922707;28;20798;-63
2023/08/06 04:47:54;;;;;;;5.70;5.30;;;;;;;13.04;nan;96098.31;4996840;28;20228;-65
2023/08/06 04:50:22;;;;;;;6.07;5.57;;;;;;;12.96;nan;96091.47;4866539;28;22768;-67
2023/08/06 04:52:49;;;;;;;5.73;5.33;;;;;;;12.98;nan;96102.69;4989485;28;20221;-63
2023/08/06 04:55:17;;;;;;;5.43;5.00;;;;;;;13.07;nan;96103.19;4990387;28;20854;-65
2023/08/06 04:57:45;;;;;;;5.60;5.27;;;;;;;13.15;nan;96094.88;4993112;28;20208;-64
2023/08/06 05:00:13;;;;;;;5.60;5.20;;;;;;;13.20;nan;96082.75;4989255;28;20609;-64
2023/08/06 05:02:41;;;;;;;5.80;5.40;;;;;;;13.22;nan;96078.84;4990730;28;20228;-63
2023/08/06 05:05:10;;;;;;;5.60;5.07;;;;;;;13.25;nan;96081.03;4989722;28;20212;-64
2023/08/06 05:07:37;;;;;;;5.93;5.43;;;;;;;13.20;nan;96072.94;4992787;28;20237;-63
2023/08/06 05:10:06;;;;;;;5.67;5.17;;;;;;;13.22;nan;96076.16;4985619;28;20328;-65
2023/08/06 05:12:34;;;;;;;5.57;5.17;;;;;;;13.27;nan;96078.16;4922647;28;21004;-64
2023/08/06 05:15:01;;;;;;;5.70;5.30;;;;;;;13.42;nan;96077.69;4989723;28;20581;-65
2023/08/06 05:17:29;;;;;;;7.20;4.87;;;;;;;13.49;nan;96080.28;4982700;28;20486;-65
2023/08/06 05:19:57;;;;;;;5.27;4.87;;;;;;;13.56;nan;96075.66;4988249;28;20260;-63
2023/08/06 05:22:26;;;;;;;5.60;5.20;;;;;;;13.64;nan;96071.88;4892504;28;20226;-63
2023/08/06 05:24:53;;;;;;;5.17;4.87;;;;;;;13.67;nan;96066.91;4991980;28;20209;-63
2023/08/06 05:27:21;;;;;;;4.93;4.63;;;;;;;13.56;nan;96065.03;4988813;28;20572;-63
2023/08/06 05:29:49;;;;;;;5.83;4.80;;;;;;;13.64;nan;96064.69;4988079;28;20205;-63
2023/08/06 05:32:16;;;;;;;5.67;5.20;;;;;;;13.77;nan;96060.97;4988752;28;20236;-63
2023/08/06 05:34:44;;;;;;;5.10;4.77;;;;;;;13.74;nan;96064.09;4991709;28;20213;-64
2023/08/06 05:37:12;;;;;;;4.80;4.50;;;;;;;13.72;nan;96060.88;4991358;28;20224;-64
2023/08/06 05:39:41;;;;;;;5.00;4.70;;;;;;;13.80;nan;96059.72;4996668;28;20205;-65
2023/08/06 05:42:08;;;;;;;5.20;4.83;;;;;;;13.84;nan;96056.38;4984952;28;20230;-63
2023/08/06 05:44:36;;;;;;;4.83;4.53;;;;;;;13.84;nan;96051.03;4994955;28;20204;-63
2023/08/06 05:47:04;;;;;;;5.00;4.60;;;;;;;13.83;nan;96056.59;4990418;28;20587;-64
2023/08/06 05:49:32;;;;;;;5.33;5.03;;;;;;;13.72;nan;96061.69;4996490;28;20228;-65
2023/08/06 05:52:00;;;;;;;5.13;4.47;;;;;;;13.80;nan;96057.84;4931006;28;20240;-64
2023/08/06 05:54:27;;;;;;;5.30;4.80;;;;;;;13.81;nan;96053.34;4997089;28;20708;-65
2023/08/06 05:56:57;;;;;;;4.67;4.40;;;;;;;13.82;nan;96053.09;4887839;28;21560;-64
2023/08/06 05:59:24;;;;;;;4.80;4.40;;;;;;;13.69;nan;96056.84;4998531;28;20204;-64
2023/08/06 06:01:52;;;;;;;4.40;4.00;;;;;;;13.68;nan;96049.88;4985338;28;20258;-63
2023/08/06 06:04:20;;;;;;;4.20;4.00;;;;;;;13.64;nan;96047.91;4995716;28;20204;-62
2023/08/06 06:06:47;;;;;;;4.77;4.47;;;;;;;13.57;nan;96051.50;4988495;28;20205;-62
2023/08/06 06:09:15;;;;;;;5.27;4.87;;;;;;;13.32;nan;96046.38;4994155;28;20229;-65
2023/08/06 06:11:43;;;;;;;4.57;4.27;;;;;;;13.24;nan;96046.66;4988894;28;20205;-65
2023/08/06 06:14:12;;;;;;;5.40;4.93;;;;;;;13.24;nan;96049.34;4993570;28;20213;-63
2023/08/06 06:16:40;;;;;;;4.57;4.27;;;;;;;13.07;nan;96003.97;4989706;28;20189;-61
2023/08/06 06:19:07;;;;;;;4.83;4.43;;;;;;;13.40;nan;96053.16;4994801;28;20201;-64
2023/08/06 06:21:35;;;;;;;4.57;4.23;;;;;;;13.38;nan;96039.28;4991580;28;20793;-64
2023/08/06 06:24:03;;;;;;;4.97;4.67;;;;;;;13.49;nan;96053.69;4921278;28;20209;-64
2023/08/06 06:26:31;;;;;;;5.43;5.07;;;;;;;13.57;nan;96050.69;4995398;28;20214;-64
2023/08/06 06:28:59;;;;;;;5.07;4.77;;;;;;;13.68;nan;96051.72;4897321;28;20287;-62
2023/08/06 06:31:28;;;;;;;5.07;4.70;;;;;;;13.78;nan;96046.63;4993042;28;20593;-65
2023/08/06 06:33:56;;;;;;;4.63;4.23;;;;;;;13.85;nan;96042.00;4919021;28;20238;-62
2023/08/06 06:36:24;;;;;;;4.90;4.50;;;;;;;13.92;nan;96055.19;4986205;28;20213;-65
2023/08/06 06:38:52;;;;;;;4.33;4.03;;;;;;;14.03;nan;96042.91;4986662;28;20201;-62
2023/08/06 06:41:19;;;;;;;4.77;4.47;;;;;;;14.06;nan;96036.31;4992645;28;20217;-64
2023/08/06 06:43:47;;;;;;;4.93;4.53;;;;;;;14.09;nan;96031.31;4989245;28;20218;-64
2023/08/06 06:46:15;;;;;;;4.57;4.17;;;;;;;13.95;nan;96035.28;4992482;28;20201;-65
2023/08/06 06:48:44;;;;;;;4.47;4.07;;;;;;;14.01;nan;96029.81;4987437;28;20221;-64
2023/08/06 06:51:11;;;;;;;4.50;4.23;;;;;;;13.98;nan;96022.28;4991602;28;20489;-64
2023/08/06 06:53:40;;;;;;;4.40;4.20;;;;;;;14.41;nan;96017.56;4930279;28;20900;-66
2023/08/06 06:56:08;;;;;;;4.30;4.00;;;;;;;14.72;nan;96018.16;4921376;28;20213;-65
2023/08/06 06:58:36;;;;;;;5.33;5.00;;;;;;;14.96;nan;96018.03;4993208;28;20237;-67
2023/08/06 07:01:03;;;;;;;5.23;4.63;;;;;;;15.37;nan;96011.78;4897450;28;20217;-64
2023/08/06 07:03:31;;;;;;;4.10;3.90;;;;;;;15.70;nan;95994.91;4995695;28;20233;-63
2023/08/06 07:06:00;;;;;;;5.30;4.90;;;;;;;15.77;nan;95992.06;4987434;28;20208;-64
2023/08/06 07:08:28;;;;;;;4.90;4.50;;;;;;;15.93;nan;95992.28;4991806;28;20279;-65
2023/08/06 07:11:01;;;;;;;4.87;4.57;;;;;;;16.07;nan;95988.16;4988722;28;20771;-67
2023/08/06 07:13:29;;;;;;;4.80;4.40;;;;;;;16.27;nan;95984.94;4992306;28;20224;-64
2023/08/06 07:15:57;;;;;;;4.50;4.10;;;;;;;16.08;nan;95992.47;4989794;28;20204;-66
2023/08/06 07:18:25;;;;;;;4.43;4.10;;;;;;;16.11;nan;95991.16;4991845;28;20208;-64
2023/08/06 07:20:53;;;;;;;3.93;3.73;;;;;;;16.04;nan;95988.66;4990667;28;20208;-63
2023/08/06 07:23:22;;;;;;;5.07;4.50;;;;;;;16.27;nan;95986.81;4991031;28;20565;-64
2023/08/06 07:25:50;;;;;;;4.37;4.13;;;;;;;16.70;nan;95993.16;4991945;28;21057;-66
2023/08/06 07:28:22;;;;;;;3.97;3.77;;;;;;;16.97;nan;95988.84;4999948;28;20224;-64
2023/08/06 07:30:50;;;;;;;5.07;4.73;;;;;;;16.94;nan;95984.81;4900332;28;20232;-65
2023/08/06 07:33:17;;;;;;;4.17;3.97;;;;;;;16.73;nan;95989.97;4990962;28;20289;-64
2023/08/06 07:35:45;;;;;;;4.57;4.27;;;;;;;16.70;nan;95982.47;4989209;28;20201;-64
2023/08/06 07:38:13;;;;;;;4.50;4.20;;;;;;;16.22;nan;95978.75;4991928;28;20217;-63
2023/08/06 07:40:42;;;;;;;4.57;4.27;;;;;;;16.29;nan;95984.69;4989341;28;20204;-66
2023/08/06 07:43:09;;;;;;;3.80;3.60;;;;;;;16.38;nan;95983.19;4925508;28;20229;-65
2023/08/06 07:45:38;;;;;;;4.10;3.90;;;;;;;16.53;nan;95989.78;4988243;28;20210;-64
2023/08/06 07:48:05;;;;;;;4.13;3.83;;;;;;;16.22;nan;95974.19;4989142;28;20217;-67
2023/08/06 07:50:33;;;;;;;4.33;3.90;;;;;;;16.54;nan;95980.69;4991292;28;20259;-66
2023/08/06 07:53:01;;;;;;;4.23;3.93;;;;;;;16.80;nan;95981.75;4984271;28;20684;-66
2023/08/06 07:55:28;;;;;;;3.67;3.47;;;;;;;16.71;nan;95981.41;4990920;28;20867;-65
2023/08/06 07:57:57;;;;;;;4.00;3.70;;;;;;;17.26;nan;95969.84;4934954;28;20209;-65
2023/08/06 08:00:25;;;;;;;3.83;3.63;;;;;;;17.31;nan;95967.19;4996337;28;20209;-66
2023/08/06 08:02:53;;;;;;;3.57;3.37;;;;;;;17.11;nan;95933.06;4880838;28;20228;-66
2023/08/06 08:05:21;;;;;;;3.53;3.33;;;;;;;17.52;nan;95962.00;4989003;28;20281;-64
2023/08/06 08:07:48;;;;;;;3.60;3.40;;;;;;;17.56;nan;95957.72;4983658;28;20201;-66
2023/08/06 08:10:16;;;;;;;2.87;2.70;;;;;;;17.57;nan;95952.09;4988543;28;20225;-63
2023/08/06 08:12:47;;;;;;;3.20;3.00;;;;;;;17.32;nan;95948.22;4988827;28;20477;-64
2023/08/06 08:15:16;;;;;;;3.00;2.83;;;;;;;17.42;nan;95957.38;4995235;28;20224;-66
2023/08/06 08:17:44;;;;;;;3.10;2.90;;;;;;;17.68;nan;95949.50;4984660;28;20205;-65
2023/08/06 08:20:12;;;;;;;5.73;3.10;;;;;;;17.48;nan;95953.66;4991651;28;20661;-64
2023/08/06 08:22:40;;;;;;;3.00;2.80;;;;;;;17.34;nan;95947.94;4989046;28;20339;-64
2023/08/06 08:25:08;;;;;;;3.77;3.57;;;;;;;17.17;nan;95945.41;4992090;28;20205;-65
2023/08/06 08:27:35;;;;;;;3.03;2.80;;;;;;;17.25;nan;95955.66;4988531;28;20216;-66
2023/08/06 08:30:03;;;;;;;2.77;2.57;;;;;;;16.99;nan;95950.13;4992673;28;20225;-65
2023/08/06 08:32:32;;;;;;;2.50;2.30;;;;;;;16.98;nan;95945.00;4864159;28;21417;-65
2023/08/06 08:35:00;;;;;;;2.50;2.30;;;;;;;17.09;nan;95943.22;4992010;28;20254;-65
2023/08/06 08:37:28;;;;;;;2.47;1.97;;;;;;;17.10;nan;95950.19;4923850;28;20210;-65
2023/08/06 08:39:56;;;;;;;2.07;1.97;;;;;;;16.95;nan;95942.81;4993495;28;20230;-66
2023/08/06 08:42:24;;;;;;;1.77;1.77;;;;;;;17.10;nan;95942.16;4985537;28;20233;-65
2023/08/06 08:44:53;;;;;;;1.63;1.53;;;;;;;16.98;nan;95953.84;4991480;28;20546;-65
2023/08/06 08:47:20;;;;;;;2.27;2.07;;;;;;;16.87;nan;95947.56;4987161;28;20212;-65
2023/08/06 08:49:50;;;;;;;2.13;2.03;;;;;;;16.91;nan;95947.88;4992786;28;20231;-64
2023/08/06 08:52:18;;;;;;;2.40;2.30;;;;;;;16.87;nan;95944.09;4934181;28;20926;-64
2023/08/06 08:54:49;;;;;;;2.03;1.93;;;;;;;16.76;nan;95944.00;4998054;28;20224;-64
2023/08/06 08:57:16;;;;;;;3.10;2.50;;;;;;;17.05;nan;95934.91;4987633;28;20653;-64
2023/08/06 08:59:44;;;;;;;2.37;2.20;;;;;;;17.13;nan;95941.66;4992674;28;20215;-63
2023/08/06 09:02:13;;;;;;;2.60;2.40;;;;;;;17.41;nan;95939.69;4986662;28;20231;-63
2023/08/06 09:04:41;;;;;;;2.30;1.57;;;;;;;17.44;nan;95925.78;4990462;28;20209;-63
2023/08/06 09:07:12;;;;;;;2.03;1.87;;;;;;;17.42;nan;95893.13;4852748;28;20922;-62
2023/08/06 09:09:40;;;;;;;2.17;2.07;;;;;;;17.69;nan;95925.13;4998479;28;20223;-63
2023/08/06 09:12:13;;;;;;;2.30;2.00;;;;;;;17.74;nan;95922.47;4990600;28;20225;-62
2023/08/06 09:14:41;;;;;;;1.90;1.80;;;;;;;18.07;nan;95914.31;4993405;28;20217;-63
2023/08/06 09:17:10;;;;;;;1.83;1.73;;;;;;;18.05;nan;95919.16;4918735;28;20208;-65
2023/08/06 09:19:38;;;;;;;4.03;1.77;;;;;;;18.05;nan;95919.16;4995426;28;20204;-62
2023/08/06 09:22:10;;;;;;;2.30;2.17;;;;;;;17.74;nan;95919.00;4988599;28;20225;-65
2023/08/06 09:24:41;;;;;;;4.90;1.90;;;;;;;16.93;nan;95925.16;4997125;28;21079;-63
2023/08/06 09:27:12;;;;;;;6.33;2.67;;;;;;;16.64;nan;95933.47;4932659;28;20220;-62
2023/08/06 09:29:41;;;;;;;2.90;2.50;;;;;;;16.66;nan;95922.53;4996432;28;20214;-62
2023/08/06 09:32:09;;;;;;;1.80;1.70;;;;;;;16.38;nan;95910.22;4991010;28;20791;-65
2023/08/06 09:34:39;;;;;;;3.03;1.77;;;;;;;16.69;nan;95922.00;4991770;28;20289;-62
2023/08/06 09:37:10;;;;;;;2.30;2.10;;;;;;;17.11;nan;95925.03;4875053;28;20264;-63
2023/08/06 09:39:42;;;;;;;2.60;2.40;;;;;;;17.54;nan;95931.19;4915072;28;20224;-62
2023/08/06 09:42:10;;;;;;;2.33;2.23;;;;;;;17.25;nan;95926.22;4992889;28;20247;-62
2023/08/06 09:44:39;;;;;;;4.17;2.83;;;;;;;15.93;nan;95941.53;4989406;28;20223;-61
2023/08/06 09:47:07;;;;;;;6.07;3.20;;;;;;;14.84;nan;95955.97;4992948;28;20684;-61
2023/08/06 09:49:45;;;;;;;2.50;1.50;;;;;;;13.64;nan;95960.09;4921197;28;20218;-66
2023/08/06 09:52:15;;;;;;;2.67;1.77;;;;;;;13.22;nan;95953.81;4994010;28;20671;-64
2023/08/06 09:54:45;;;;;;;2.17;2.03;;;;;;;13.20;nan;95955.91;4922320;28;21005;-64
2023/08/06 09:57:14;;;;;;;2.53;2.37;;;;;;;13.46;nan;95964.50;4992601;28;20217;-64
2023/08/06 09:59:42;;;;;;;3.03;2.77;;;;;;;13.69;nan;95965.50;4926100;28;20212;-64
2023/08/06 10:02:13;;;;;;;2.90;2.70;;;;;;;14.08;nan;95964.97;4995498;28;20221;-64
2023/08/06 10:04:41;;;;;;;2.30;2.20;;;;;;;14.69;nan;95970.63;4987287;28;20540;-63
2023/08/06 10:07:09;;;;;;;2.90;2.70;;;;;;;15.10;nan;95962.50;4991349;28;20259;-63
2023/08/06 10:09:38;;;;;;;3.30;3.10;;;;;;;15.44;nan;95959.03;4905642;28;20224;-63
2023/08/06 10:12:07;;;;;;;3.20;3.00;;;;;;;15.58;nan;95954.94;4993282;28;20225;-64
2023/08/06 10:14:38;;;;;;;3.13;2.93;;;;;;;15.75;nan;95952.25;4991205;28;20216;-64
2023/08/06 10:17:05;;;;;;;2.77;2.57;;;;;;;15.90;nan;95943.66;4993050;28;20637;-63
2023/08/06 10:19:34;;;;;;;2.37;2.27;;;;;;;15.75;nan;95938.88;4989621;28;20673;-64
2023/08/06 10:22:12;;;;;;;9.23;2.90;;;;;;;15.91;nan;95931.91;4993926;28;20221;-64
2023/08/06 10:24:53;;;;;;;3.33;3.13;;;;;;;15.94;nan;95935.97;4988900;28;20724;-63
2023/08/06 10:27:23;;;;;;;1.57;1.47;;;;;;;16.01;nan;95928.56;4992467;28;20262;-62
2023/08/06 10:29:51;;;;;;;2.13;2.03;;;;;;;16.05;nan;95942.19;4989162;28;20210;-62
2023/08/06 10:32:19;;;;;;;1.77;1.67;;;;;;;16.02;nan;95938.19;4990258;28;20473;-62
2023/08/06 10:34:57;;;;;;;2.07;1.20;;;;;;;15.70;nan;95943.34;4936789;28;20237;-62
2023/08/06 10:37:26;;;;;;;1.93;1.83;;;;;;;15.49;nan;95946.53;4988109;28;20592;-61
2023/08/06 10:39:54;;;;;;;2.07;1.77;;;;;;;15.28;nan;95942.78;4989976;28;20216;-62
2023/08/06 10:42:28;;;;;;;1.70;1.30;;;;;;;15.26;nan;95950.22;4991419;28;20243;-62
2023/08/06 10:45:15;;;;;;;1.60;1.50;;;;;;;15.32;nan;95945.78;4914262;28;20224;-62
2023/08/06 10:47:43;;;;;;;1.50;1.40;;;;;;;15.20;nan;95951.19;4992000;28;20279;-59
2023/08/06 10:50:13;;;;;;;1.30;1.20;;;;;;;14.92;nan;95955.56;4988973;28;20672;-61
2023/08/06 10:52:41;;;;;;;2.50;1.40;;;;;;;14.78;nan;95956.94;4993732;28;20231;-61
2023/08/06 10:55:09;;;;;;;2.00;1.70;;;;;;;14.94;nan;95966.00;4993233;28;20218;-60
2023/08/06 10:57:39;;;;;;;1.50;1.40;;;;;;;14.52;nan;95964.44;4994884;28;20201;-63
2023/08/06 11:00:08;;;;;;;1.17;1.10;;;;;;;13.95;nan;95961.53;4990313;28;20209;-62
2023/08/06 11:02:43;;;;;;;1.77;1.10;;;;;;;13.82;nan;95961.78;4989958;28;20217;-61
2023/08/06 11:05:12;;;;;;;1.03;1.03;;;;;;;13.95;nan;95960.72;4942849;28;20279;-62
2023/08/06 11:07:39;;;;;;;1.53;1.23;;;;;;;14.20;nan;95968.41;4987974;28;20202;-60
2023/08/06 11:10:09;;;;;;;1.60;1.43;;;;;;;14.56;nan;95970.91;4993390;28;20212;-61
2023/08/06 11:12:38;;;;;;;1.00;1.00;;;;;;;15.11;nan;95964.13;4989468;28;20229;-59
2023/08/06 11:15:07;;;;;;;2.30;1.30;;;;;;;15.26;nan;95954.75;4902038;28;20341;-63
2023/08/06 11:17:35;;;;;;;1.40;1.30;;;;;;;15.69;nan;95944.41;4988639;28;21202;-61
2023/08/06 11:20:05;;;;;;;1.20;1.10;;;;;;;15.71;nan;95935.09;4988640;28;20200;-63
2023/08/06 11:22:33;;;;;;;1.20;1.10;;;;;;;16.20;nan;95926.34;4990209;28;20585;-59
2023/08/06 11:25:01;;;;;;;1.30;1.20;;;;;;;16.84;nan;95936.56;4930508;28;20838;-61
2023/08/06 11:27:29;;;;;;;0.80;0.80;;;;;;;16.86;nan;95929.13;4992254;28;20212;-60
2023/08/06 11:29:59;;;;;;;2.80;0.70;;;;;;;16.68;nan;95925.75;4928229;28;21599;-64
2023/08/06 11:32:27;;;;;;;0.60;0.50;;;;;;;16.55;nan;95920.81;4988282;28;20232;-61
2023/08/06 11:34:56;;;;;;;0.50;0.50;;;;;;;16.62;nan;95895.47;4941286;28;20209;-62
2023/08/06 11:37:25;;;;;;;0.93;0.93;;;;;;;16.85;nan;95895.38;4986715;28;20222;-61
2023/08/06 11:39:53;;;;;;;0.70;0.70;;;;;;;16.82;nan;95886.00;4985404;28;20232;-62
2023/08/06 11:42:21;;;;;;;2.00;1.40;;;;;;;16.79;nan;95892.66;4989167;28;20232;-61
2023/08/06 11:44:49;;;;;;;0.80;0.70;;;;;;;17.18;nan;95894.31;4935264;28;20225;-65
2023/08/06 11:47:19;;;;;;;0.60;0.50;;;;;;;17.82;nan;95902.41;4973279;28;20209;-63
2023/08/06 11:49:48;;;;;;;0.50;0.50;;;;;;;17.89;nan;95905.66;4989733;28;20903;-63
2023/08/06 11:52:19;;;;;;;1.60;0.40;;;;;;;17.63;nan;95902.06;4992826;28;20251;-63
2023/08/06 11:54:48;;;;;;;0.30;0.30;;;;;;;17.58;nan;95902.84;4986612;28;20732;-61
2023/08/06 11:57:16;;;;;;;0.40;0.40;;;;;;;17.64;nan;95901.00;4993436;28;20423;-61